createdAt,value
2022-12-31T00:04:28.051Z,100420
2022-12-31T00:09:28.049Z,100430
2022-12-31T00:14:28.227Z,100440
2022-12-31T00:19:28.063Z,100460
2022-12-31T00:24:28.057Z,100460
2022-12-31T00:29:28.066Z,100440
2022-12-31T00:34:28.063Z,100440
2022-12-31T00:39:28.073Z,100450
2022-12-31T00:44:28.068Z,100450
2022-12-31T00:49:28.515Z,100460
2022-12-31T00:54:28.095Z,100460
2022-12-31T00:59:28.086Z,100470
2022-12-31T01:04:28.082Z,100470
2022-12-31T01:09:28.095Z,100450
2022-12-31T01:14:28.092Z,100480
2022-12-31T01:19:28.095Z,100490
2022-12-31T01:24:28.265Z,100480
2022-12-31T01:29:28.095Z,100480
2022-12-31T01:34:28.100Z,100480
2022-12-31T01:39:28.103Z,100480
2022-12-31T01:44:28.100Z,100490
2022-12-31T01:49:28.111Z,100490
2022-12-31T01:54:28.542Z,100480
2022-12-31T01:59:28.110Z,100480
2022-12-31T02:04:28.125Z,100480
2022-12-31T02:09:28.117Z,100480
2022-12-31T02:14:28.128Z,100480
2022-12-31T02:19:28.131Z,100490
2022-12-31T02:24:28.251Z,100490
2022-12-31T02:29:28.135Z,100500
2022-12-31T02:34:28.132Z,100490
2022-12-31T02:39:28.137Z,100480
2022-12-31T02:44:28.180Z,100470
2022-12-31T02:49:28.140Z,100450
2022-12-31T02:54:28.274Z,100450
2022-12-31T02:59:28.141Z,100440
2022-12-31T03:04:28.150Z,100440
2022-12-31T03:09:28.158Z,100460
2022-12-31T03:14:28.206Z,100470
2022-12-31T03:19:28.160Z,100470
2022-12-31T03:24:28.609Z,100480
2022-12-31T03:29:28.172Z,100500
2022-12-31T03:34:28.174Z,100500
2022-12-31T03:39:28.170Z,100500
2022-12-31T03:44:28.172Z,100490
2022-12-31T03:49:28.176Z,100500
2022-12-31T03:54:28.649Z,100500
2022-12-31T03:59:28.191Z,100510
2022-12-31T04:04:28.182Z,100520
2022-12-31T04:09:28.190Z,100500
2022-12-31T04:14:28.201Z,100490
2022-12-31T04:19:28.207Z,100490
2022-12-31T04:24:28.368Z,100480
2022-12-31T04:29:28.206Z,100490
2022-12-31T04:34:28.226Z,100490
2022-12-31T04:39:28.204Z,100460
2022-12-31T04:44:28.208Z,100470
2022-12-31T04:49:28.213Z,100450
2022-12-31T04:54:28.665Z,100470
2022-12-31T04:59:28.220Z,100470
2022-12-31T05:04:28.228Z,100470
2022-12-31T05:09:28.233Z,100470
2022-12-31T05:14:28.236Z,100470
2022-12-31T05:19:28.232Z,100480
2022-12-31T05:24:28.674Z,100480
2022-12-31T05:29:28.244Z,100490
2022-12-31T05:34:28.243Z,100490
2022-12-31T05:39:28.241Z,100500
2022-12-31T05:44:28.245Z,100490
2022-12-31T05:49:28.253Z,100480
2022-12-31T05:54:28.430Z,100480
2022-12-31T05:59:28.252Z,100490
2022-12-31T06:04:28.252Z,100500
2022-12-31T06:09:28.274Z,100510
2022-12-31T06:14:28.261Z,100490
2022-12-31T06:19:28.275Z,100500
2022-12-31T06:24:28.767Z,100490
2022-12-31T06:29:28.284Z,100490
2022-12-31T06:34:28.282Z,100490
2022-12-31T06:39:28.282Z,100500
2022-12-31T06:44:28.287Z,100490
2022-12-31T06:49:28.287Z,100510
2022-12-31T06:54:28.410Z,100500
2022-12-31T06:59:28.291Z,100500
2022-12-31T07:04:28.293Z,100510
2022-12-31T07:09:28.289Z,100510
2022-12-31T07:14:28.287Z,100500
2022-12-31T07:19:28.302Z,100500
2022-12-31T07:24:28.478Z,100510
2022-12-31T07:29:28.309Z,100500
2022-12-31T07:34:28.305Z,100480
2022-12-31T07:39:28.311Z,100480
2022-12-31T07:44:28.321Z,100490
2022-12-31T07:49:28.323Z,100490
2022-12-31T07:54:28.493Z,100500
2022-12-31T07:59:28.326Z,100510
2022-12-31T08:04:28.339Z,100530
2022-12-31T08:09:28.335Z,100520
2022-12-31T08:14:28.343Z,100540
2022-12-31T08:19:28.334Z,100530
2022-12-31T08:24:28.519Z,100550
2022-12-31T08:29:28.341Z,100540
2022-12-31T08:34:28.338Z,100550
2022-12-31T08:39:28.357Z,100550
2022-12-31T08:44:28.363Z,100550
2022-12-31T08:49:28.356Z,100540
2022-12-31T08:54:28.478Z,100550
2022-12-31T08:59:28.364Z,100570
2022-12-31T09:04:28.404Z,100590
2022-12-31T09:09:28.392Z,100620
2022-12-31T09:14:28.365Z,100610
2022-12-31T09:19:28.377Z,100630
2022-12-31T09:24:28.497Z,100640
2022-12-31T09:29:28.376Z,100650
2022-12-31T09:34:28.390Z,100650
2022-12-31T09:39:28.389Z,100650
2022-12-31T09:44:28.392Z,100670
2022-12-31T09:49:28.402Z,100660
2022-12-31T09:54:28.516Z,100660
2022-12-31T09:59:28.406Z,100660
2022-12-31T10:04:28.397Z,100670
2022-12-31T10:09:28.399Z,100670
2022-12-31T10:14:28.415Z,100680
2022-12-31T10:19:28.403Z,100680
2022-12-31T10:24:28.597Z,100680
2022-12-31T10:29:28.414Z,100660
2022-12-31T10:34:28.413Z,100660
2022-12-31T10:39:28.430Z,100660
2022-12-31T10:44:28.423Z,100660
2022-12-31T10:49:28.426Z,100660
2022-12-31T10:54:28.542Z,100670
2022-12-31T10:59:28.425Z,100670
2022-12-31T11:04:28.433Z,100670
2022-12-31T11:09:34.235Z,100650
2022-12-31T11:14:28.441Z,100670
2022-12-31T11:19:28.473Z,100650
2022-12-31T11:24:28.624Z,100650
2022-12-31T11:29:28.452Z,100650
2022-12-31T11:34:28.460Z,100660
2022-12-31T11:39:31.294Z,100660
2022-12-31T11:44:28.476Z,100670
2022-12-31T11:49:28.462Z,100640
2022-12-31T11:54:28.619Z,100650
2022-12-31T11:59:28.475Z,100650
2022-12-31T12:04:28.474Z,100660
2022-12-31T12:09:28.475Z,100640
2022-12-31T12:14:28.479Z,100670
2022-12-31T12:19:28.483Z,100660
2022-12-31T12:24:28.955Z,100680
2022-12-31T12:29:28.502Z,100670
2022-12-31T12:34:28.502Z,100670
2022-12-31T12:39:28.498Z,100670
2022-12-31T12:44:28.525Z,100670
2022-12-31T12:49:28.502Z,100660
2022-12-31T12:54:28.677Z,100680
2022-12-31T12:59:28.505Z,100670
2022-12-31T13:04:35.398Z,100660
2022-12-31T13:09:28.545Z,100670
2022-12-31T13:14:28.518Z,100670
2022-12-31T13:19:28.511Z,100690
2022-12-31T13:24:28.989Z,100680
2022-12-31T13:29:28.540Z,100690
2022-12-31T13:34:28.525Z,100700
2022-12-31T13:39:28.552Z,100700
2022-12-31T13:44:28.526Z,100700
2022-12-31T13:49:28.529Z,100710
2022-12-31T13:54:28.709Z,100710
2022-12-31T13:59:28.535Z,100710
2022-12-31T14:04:28.543Z,100710
2022-12-31T14:09:28.541Z,100700
2022-12-31T14:14:28.549Z,100710
2022-12-31T14:19:32.484Z,100720
2022-12-31T14:24:28.671Z,100720
2022-12-31T14:29:28.549Z,100710
2022-12-31T14:34:28.566Z,100710
2022-12-31T14:39:28.561Z,100710
2022-12-31T14:44:28.587Z,100720
2022-12-31T14:49:28.576Z,100710
2022-12-31T14:54:29.367Z,100710
2022-12-31T14:59:28.585Z,100730
2022-12-31T15:04:28.600Z,100760
2022-12-31T15:09:28.580Z,100740
2022-12-31T15:14:33.715Z,100750
2022-12-31T15:19:28.599Z,100760
2022-12-31T15:24:28.763Z,100750
2022-12-31T15:29:28.606Z,100760
2022-12-31T15:34:28.595Z,100760
2022-12-31T15:39:28.636Z,100750
2022-12-31T15:44:28.621Z,100760
2022-12-31T15:49:28.599Z,100750
2022-12-31T15:54:28.742Z,100760
2022-12-31T15:59:28.610Z,100750
2022-12-31T16:04:28.620Z,100740
2022-12-31T16:09:28.614Z,100760
2022-12-31T16:14:28.623Z,100750
2022-12-31T16:19:28.619Z,100750
2022-12-31T16:24:28.760Z,100750
2022-12-31T16:29:28.632Z,100750
2022-12-31T16:34:28.652Z,100740
2022-12-31T16:39:28.634Z,100740
2022-12-31T16:44:28.643Z,100750
2022-12-31T16:49:28.647Z,100720
2022-12-31T16:54:28.762Z,100730
2022-12-31T16:59:34.709Z,100730
2022-12-31T17:04:28.646Z,100720
2022-12-31T17:09:28.653Z,100720
2022-12-31T17:14:28.653Z,100730
2022-12-31T17:19:28.810Z,100720
2022-12-31T17:24:28.829Z,100720
2022-12-31T17:29:28.659Z,100710
2022-12-31T17:34:28.677Z,100710
2022-12-31T17:39:28.688Z,100710
2022-12-31T17:44:28.672Z,100710
2022-12-31T17:49:28.676Z,100730
2022-12-31T17:54:29.139Z,100710
2022-12-31T17:59:28.677Z,100710
2022-12-31T18:04:28.699Z,100710
2022-12-31T18:09:28.687Z,100710
2022-12-31T18:14:28.703Z,100730
2022-12-31T18:24:28.769Z,100720
2022-12-31T18:29:28.814Z,100710
2022-12-31T18:34:28.700Z,100710
2022-12-31T18:39:28.705Z,100710
2022-12-31T18:44:28.709Z,100700
2022-12-31T18:49:28.721Z,100720
2022-12-31T18:54:28.897Z,100730
2022-12-31T18:59:28.827Z,100720
2022-12-31T19:04:28.744Z,100720
2022-12-31T19:09:45.063Z,100710
2022-12-31T19:14:28.763Z,100710
2022-12-31T19:19:28.736Z,100710
2022-12-31T19:24:28.927Z,100720
2022-12-31T19:29:28.802Z,100740
2022-12-31T19:34:28.740Z,100730
2022-12-31T19:39:28.738Z,100740
2022-12-31T19:44:28.745Z,100740
2022-12-31T19:49:28.760Z,100740
2022-12-31T19:54:28.949Z,100730
2022-12-31T19:59:28.809Z,100730
2022-12-31T20:04:28.753Z,100730
2022-12-31T20:09:28.764Z,100730
2022-12-31T20:14:28.757Z,100730
2022-12-31T20:19:28.761Z,100740
2022-12-31T20:24:28.968Z,100760
2022-12-31T20:29:28.880Z,100750
2022-12-31T20:34:28.774Z,100770
2022-12-31T20:39:28.767Z,100760
2022-12-31T20:44:28.781Z,100780
2022-12-31T20:50:00.929Z,100780
2022-12-31T20:54:28.991Z,100770
2022-12-31T20:59:28.907Z,100770
2022-12-31T21:04:28.978Z,100770
2022-12-31T21:09:28.798Z,100770
2022-12-31T21:14:28.800Z,100780
2022-12-31T21:19:28.810Z,100770
2022-12-31T21:24:28.861Z,100770
2022-12-31T21:29:34.156Z,100770
2022-12-31T21:34:28.809Z,100790
2022-12-31T21:39:28.814Z,100790
2022-12-31T21:44:28.807Z,100800
2022-12-31T21:49:28.818Z,100820
2022-12-31T21:54:29.030Z,100820
2022-12-31T21:59:28.893Z,100830
2022-12-31T22:05:00.911Z,100830
2022-12-31T22:09:28.825Z,100850
2022-12-31T22:14:28.836Z,100810
2022-12-31T22:19:28.837Z,100830
2022-12-31T22:24:29.044Z,100830
2022-12-31T22:29:28.910Z,100840
2022-12-31T22:34:28.843Z,100840
2022-12-31T22:39:43.402Z,100850
2022-12-31T22:44:28.874Z,100840
2022-12-31T22:49:28.859Z,100870
2022-12-31T22:54:29.060Z,100850
2022-12-31T22:59:28.969Z,100850
2022-12-31T23:04:28.979Z,100870
2022-12-31T23:09:28.865Z,100870
2022-12-31T23:14:28.881Z,100870
2022-12-31T23:19:28.899Z,100880
2022-12-31T23:24:28.958Z,100890
2022-12-31T23:29:28.990Z,100880
2022-12-31T23:34:28.875Z,100890
2022-12-31T23:39:28.895Z,100890
2022-12-31T23:44:28.891Z,100900
2022-12-31T23:49:28.887Z,100900
2022-12-31T23:54:29.101Z,100890
2022-12-31T23:59:29.029Z,100890
